sensor_id;sensor_type;location;lat;lon;timestamp;pressure;altitude;pressure_sealevel;temperature;humidity
73267;BME280;61495;53.400;7.608;2023-08-20T00:02:08;102014.66;;;16.63;91.64
73267;BME280;61495;53.400;7.608;2023-08-20T00:04:35;102016.75;;;16.61;93.05
73267;BME280;61495;53.400;7.608;2023-08-20T00:07:01;102020.31;;;16.55;93.19
73267;BME280;61495;53.400;7.608;2023-08-20T00:09:27;102019.69;;;16.53;92.31
73267;BME280;61495;53.400;7.608;2023-08-20T00:11:53;102012.44;;;16.47;92.63
73267;BME280;61495;53.400;7.608;2023-08-20T00:14:18;102008.72;;;16.41;92.30
73267;BME280;61495;53.400;7.608;2023-08-20T00:16:45;102013.50;;;16.39;92.16
73267;BME280;61495;53.400;7.608;2023-08-20T00:19:11;102012.06;;;16.37;91.96
73267;BME280;61495;53.400;7.608;2023-08-20T00:21:41;102019.78;;;16.33;92.22
73267;BME280;61495;53.400;7.608;2023-08-20T00:24:08;102006.09;;;16.22;91.80
73267;BME280;61495;53.400;7.608;2023-08-20T00:26:34;102028.38;;;16.24;91.98
73267;BME280;61495;53.400;7.608;2023-08-20T00:28:59;102030.66;;;16.20;91.55
73267;BME280;61495;53.400;7.608;2023-08-20T00:31:25;102027.38;;;16.18;92.03
73267;BME280;61495;53.400;7.608;2023-08-20T00:33:50;102022.38;;;16.15;92.09
73267;BME280;61495;53.400;7.608;2023-08-20T00:36:16;102026.53;;;16.11;92.61
73267;BME280;61495;53.400;7.608;2023-08-20T00:38:41;102014.06;;;16.03;93.35
73267;BME280;61495;53.400;7.608;2023-08-20T00:41:07;102030.94;;;16.05;92.89
73267;BME280;61495;53.400;7.608;2023-08-20T00:43:32;102022.00;;;15.98;93.04
73267;BME280;61495;53.400;7.608;2023-08-20T00:46:01;102020.38;;;15.97;92.32
73267;BME280;61495;53.400;7.608;2023-08-20T00:48:26;101999.19;;;15.81;91.93
73267;BME280;61495;53.400;7.608;2023-08-20T00:50:52;102029.94;;;15.87;92.02
73267;BME280;61495;53.400;7.608;2023-08-20T00:53:18;102025.81;;;15.84;92.27
73267;BME280;61495;53.400;7.608;2023-08-20T00:55:43;102033.06;;;15.84;92.53
73267;BME280;61495;53.400;7.608;2023-08-20T00:58:10;102038.91;;;15.81;92.94
73267;BME280;61495;53.400;7.608;2023-08-20T01:00:36;102035.19;;;15.75;93.10
73267;BME280;61495;53.400;7.608;2023-08-20T01:03:02;102038.09;;;15.74;94.24
73267;BME280;61495;53.400;7.608;2023-08-20T01:05:32;102041.63;;;15.74;93.62
73267;BME280;61495;53.400;7.608;2023-08-20T01:11:04;102040.81;;;15.67;93.73
73267;BME280;61495;53.400;7.608;2023-08-20T01:13:31;102043.72;;;15.66;93.78
73267;BME280;61495;53.400;7.608;2023-08-20T01:15:57;102043.31;;;15.62;94.21
73267;BME280;61495;53.400;7.608;2023-08-20T01:18:24;102041.66;;;15.61;94.32
73267;BME280;61495;53.400;7.608;2023-08-20T01:20:58;102036.69;;;15.58;94.43
73267;BME280;61495;53.400;7.608;2023-08-20T01:28:44;102047.06;;;15.54;95.02
73267;BME280;61495;53.400;7.608;2023-08-20T01:31:10;102028.34;;;15.46;95.30
73267;BME280;61495;53.400;7.608;2023-08-20T01:33:36;102051.22;;;15.50;94.64
73267;BME280;61495;53.400;7.608;2023-08-20T01:36:01;102043.72;;;15.46;94.80
73267;BME280;61495;53.400;7.608;2023-08-20T01:38:27;102053.69;;;15.45;94.31
73267;BME280;61495;53.400;7.608;2023-08-20T01:40:52;102055.97;;;15.42;94.18
73267;BME280;61495;53.400;7.608;2023-08-20T01:43:18;102056.19;;;15.40;94.60
73267;BME280;61495;53.400;7.608;2023-08-20T01:45:43;102056.81;;;15.36;94.77
73267;BME280;61495;53.400;7.608;2023-08-20T01:48:09;102056.59;;;15.31;94.90
73267;BME280;61495;53.400;7.608;2023-08-20T01:50:35;102063.69;;;15.32;95.45
73267;BME280;61495;53.400;7.608;2023-08-20T01:53:01;102062.19;;;15.29;95.19
73267;BME280;61495;53.400;7.608;2023-08-20T01:55:27;102062.84;;;15.25;94.05
73267;BME280;61495;53.400;7.608;2023-08-20T01:57:53;102069.91;;;15.26;94.64
73267;BME280;61495;53.400;7.608;2023-08-20T02:00:18;102071.34;;;15.22;93.85
73267;BME280;61495;53.400;7.608;2023-08-20T02:02:44;102076.97;;;15.20;93.74
73267;BME280;61495;53.400;7.608;2023-08-20T02:05:09;102083.81;;;15.16;94.23
73267;BME280;61495;53.400;7.608;2023-08-20T02:07:37;102083.38;;;15.13;93.79
73267;BME280;61495;53.400;7.608;2023-08-20T02:10:03;102084.44;;;15.05;93.61
73267;BME280;61495;53.400;7.608;2023-08-20T02:12:29;102082.53;;;15.06;93.70
73267;BME280;61495;53.400;7.608;2023-08-20T02:14:54;102074.22;;;15.00;94.41
73267;BME280;61495;53.400;7.608;2023-08-20T02:17:19;102081.91;;;15.03;94.74
73267;BME280;61495;53.400;7.608;2023-08-20T02:19:45;102076.09;;;15.00;95.12
73267;BME280;61495;53.400;7.608;2023-08-20T02:22:10;102087.31;;;14.97;95.61
73267;BME280;61495;53.400;7.608;2023-08-20T02:24:36;102078.19;;;14.98;95.83
73267;BME280;61495;53.400;7.608;2023-08-20T02:27:02;102066.13;;;14.87;95.74
73267;BME280;61495;53.400;7.608;2023-08-20T02:29:28;102077.13;;;14.92;96.64
73267;BME280;61495;53.400;7.608;2023-08-20T02:31:53;102087.31;;;14.90;97.06
73267;BME280;61495;53.400;7.608;2023-08-20T02:34:18;102089.78;;;14.92;97.12
73267;BME280;61495;53.400;7.608;2023-08-20T02:36:44;102095.19;;;14.92;97.42
73267;BME280;61495;53.400;7.608;2023-08-20T02:39:09;102091.22;;;14.88;97.01
73267;BME280;61495;53.400;7.608;2023-08-20T02:41:35;102087.72;;;14.87;98.66
73267;BME280;61495;53.400;7.608;2023-08-20T02:44:01;102081.06;;;14.83;99.63
73267;BME280;61495;53.400;7.608;2023-08-20T02:46:27;102073.56;;;14.79;99.26
73267;BME280;61495;53.400;7.608;2023-08-20T02:48:52;102080.63;;;14.80;98.00
73267;BME280;61495;53.400;7.608;2023-08-20T02:51:18;102082.50;;;14.79;97.28
73267;BME280;61495;53.400;7.608;2023-08-20T02:53:43;102074.41;;;14.79;97.52
73267;BME280;61495;53.400;7.608;2023-08-20T02:56:09;102073.16;;;14.75;97.30
73267;BME280;61495;53.400;7.608;2023-08-20T02:58:34;102073.56;;;14.72;97.96
73267;BME280;61495;53.400;7.608;2023-08-20T03:01:00;102070.22;;;14.70;97.12
73267;BME280;61495;53.400;7.608;2023-08-20T03:03:25;102075.63;;;14.64;97.38
73267;BME280;61495;53.400;7.608;2023-08-20T03:05:50;102074.13;;;14.61;98.29
73267;BME280;61495;53.400;7.608;2023-08-20T03:08:16;102086.81;;;14.67;98.22
73267;BME280;61495;53.400;7.608;2023-08-20T03:10:41;102080.59;;;14.60;97.68
73267;BME280;61495;53.400;7.608;2023-08-20T03:13:07;102081.81;;;14.64;98.53
73267;BME280;61495;53.400;7.608;2023-08-20T03:15:39;102080.19;;;14.63;98.85
73267;BME280;61495;53.400;7.608;2023-08-20T03:18:05;102076.84;;;14.61;98.36
73267;BME280;61495;53.400;7.608;2023-08-20T03:20:31;102061.06;;;14.58;98.49
73267;BME280;61495;53.400;7.608;2023-08-20T03:22:56;102051.91;;;14.53;98.43
73267;BME280;61495;53.400;7.608;2023-08-20T03:25:22;102050.66;;;14.55;98.50
73267;BME280;61495;53.400;7.608;2023-08-20T03:27:49;102043.63;;;14.54;99.34
73267;BME280;61495;53.400;7.608;2023-08-20T03:30:15;102045.69;;;14.52;99.32
73267;BME280;61495;53.400;7.608;2023-08-20T03:32:40;102044.03;;;14.51;98.88
73267;BME280;61495;53.400;7.608;2023-08-20T03:35:06;102051.91;;;14.53;99.76
73267;BME280;61495;53.400;7.608;2023-08-20T03:37:31;102051.91;;;14.53;99.82
73267;BME280;61495;53.400;7.608;2023-08-20T03:39:56;102031.56;;;14.50;100.00
73267;BME280;61495;53.400;7.608;2023-08-20T03:42:22;102038.25;;;14.54;99.36
73267;BME280;61495;53.400;7.608;2023-08-20T03:44:47;102045.50;;;14.54;99.31
73267;BME280;61495;53.400;7.608;2023-08-20T03:47:13;102045.69;;;14.52;100.00
73267;BME280;61495;53.400;7.608;2023-08-20T03:49:39;102052.13;;;14.51;99.21
73267;BME280;61495;53.400;7.608;2023-08-20T03:52:05;102051.06;;;14.52;99.19
73267;BME280;61495;53.400;7.608;2023-08-20T03:54:32;102058.38;;;14.52;99.92
73267;BME280;61495;53.400;7.608;2023-08-20T03:56:58;102059.38;;;14.51;99.47
73267;BME280;61495;53.400;7.608;2023-08-20T03:59:23;102060.63;;;14.48;99.16
73267;BME280;61495;53.400;7.608;2023-08-20T04:01:49;102051.28;;;14.44;98.89
73267;BME280;61495;53.400;7.608;2023-08-20T04:04:14;102065.41;;;14.46;99.90
73267;BME280;61495;53.400;7.608;2023-08-20T04:06:39;102059.34;;;14.44;98.38
73267;BME280;61495;53.400;7.608;2023-08-20T04:09:05;102060.56;;;14.35;99.34
73267;BME280;61495;53.400;7.608;2023-08-20T04:11:31;102061.84;;;14.39;98.38
73267;BME280;61495;53.400;7.608;2023-08-20T04:13:57;102053.91;;;14.31;98.03
73267;BME280;61495;53.400;7.608;2023-08-20T04:16:22;102067.63;;;14.36;98.27
73267;BME280;61495;53.400;7.608;2023-08-20T04:18:49;102043.91;;;14.25;99.54
73267;BME280;61495;53.400;7.608;2023-08-20T04:21:15;102052.63;;;14.27;98.56
73267;BME280;61495;53.400;7.608;2023-08-20T04:23:40;102069.44;;;14.29;98.27
73267;BME280;61495;53.400;7.608;2023-08-20T04:26:07;102063.41;;;14.27;99.04
73267;BME280;61495;53.400;7.608;2023-08-20T04:28:33;102074.19;;;14.27;98.98
73267;BME280;61495;53.400;7.608;2023-08-20T04:30:58;102070.22;;;14.23;98.96
73267;BME280;61495;53.400;7.608;2023-08-20T04:33:25;102057.94;;;14.14;98.90
73267;BME280;61495;53.400;7.608;2023-08-20T04:35:51;102066.69;;;14.16;98.67
73267;BME280;61495;53.400;7.608;2023-08-20T04:38:18;102072.69;;;14.18;98.52
73267;BME280;61495;53.400;7.608;2023-08-20T04:40:47;102070.84;;;14.18;98.93
73267;BME280;61495;53.400;7.608;2023-08-20T04:43:13;102074.56;;;14.17;99.49
73267;BME280;61495;53.400;7.608;2023-08-20T04:45:38;102084.50;;;14.17;99.80
73267;BME280;61495;53.400;7.608;2023-08-20T04:48:04;102084.09;;;14.13;99.04
73267;BME280;61495;53.400;7.608;2023-08-20T04:50:30;102097.34;;;14.15;98.62
73267;BME280;61495;53.400;7.608;2023-08-20T04:52:55;102093.81;;;14.14;99.48
73267;BME280;61495;53.400;7.608;2023-08-20T04:55:20;102093.19;;;14.12;99.10
73267;BME280;61495;53.400;7.608;2023-08-20T04:57:47;102091.34;;;14.13;99.62
73267;BME280;61495;53.400;7.608;2023-08-20T05:00:12;102087.38;;;14.09;99.67
73267;BME280;61495;53.400;7.608;2023-08-20T05:02:38;102104.81;;;14.13;100.00
73267;BME280;61495;53.400;7.608;2023-08-20T05:05:04;102096.06;;;14.11;100.00
73267;BME280;61495;53.400;7.608;2023-08-20T05:07:29;102091.09;;;14.08;100.00
73267;BME280;61495;53.400;7.608;2023-08-20T05:09:55;102106.47;;;14.14;100.00
73267;BME280;61495;53.400;7.608;2023-08-20T05:12:20;102111.28;;;14.18;100.00
73267;BME280;61495;53.400;7.608;2023-08-20T05:14:46;102100.88;;;14.15;100.00
73267;BME280;61495;53.400;7.608;2023-08-20T05:17:11;102108.63;;;14.25;100.00
73267;BME280;61495;53.400;7.608;2023-08-20T05:19:36;102103.84;;;14.27;100.00
73267;BME280;61495;53.400;7.608;2023-08-20T05:22:02;102111.78;;;14.35;100.00
73267;BME280;61495;53.400;7.608;2023-08-20T05:24:27;102122.03;;;14.46;100.00
73267;BME280;61495;53.400;7.608;2023-08-20T05:27:12;102121.44;;;14.57;100.00
73267;BME280;61495;53.400;7.608;2023-08-20T05:29:39;102131.66;;;14.68;100.00
73267;BME280;61495;53.400;7.608;2023-08-20T05:32:05;102128.78;;;14.83;100.00
73267;BME280;61495;53.400;7.608;2023-08-20T05:34:30;102120.94;;;14.94;100.00
73267;BME280;61495;53.400;7.608;2023-08-20T05:36:56;102129.28;;;15.13;100.00
73267;BME280;61495;53.400;7.608;2023-08-20T05:39:22;102108.13;;;15.23;100.00
73267;BME280;61495;53.400;7.608;2023-08-20T05:41:48;102119.78;;;15.43;100.00
73267;BME280;61495;53.400;7.608;2023-08-20T05:44:14;102115.63;;;15.60;100.00
73267;BME280;61495;53.400;7.608;2023-08-20T05:46:43;102123.94;;;15.78;100.00
73267;BME280;61495;53.400;7.608;2023-08-20T05:49:09;102119.75;;;15.95;100.00
73267;BME280;61495;53.400;7.608;2023-08-20T05:51:34;102117.81;;;16.16;100.00
73267;BME280;61495;53.400;7.608;2023-08-20T05:54:00;102125.06;;;16.35;100.00
73267;BME280;61495;53.400;7.608;2023-08-20T05:56:25;102124.59;;;16.51;100.00
73267;BME280;61495;53.400;7.608;2023-08-20T05:58:51;102126.41;;;16.70;100.00
73267;BME280;61495;53.400;7.608;2023-08-20T06:01:16;102134.41;;;16.90;100.00
73267;BME280;61495;53.400;7.608;2023-08-20T06:03:42;102128.50;;;17.06;100.00
73267;BME280;61495;53.400;7.608;2023-08-20T06:06:07;102132.97;;;17.25;100.00
73267;BME280;61495;53.400;7.608;2023-08-20T06:08:33;102135.28;;;17.46;100.00
73267;BME280;61495;53.400;7.608;2023-08-20T06:10:59;102127.50;;;17.63;100.00
73267;BME280;61495;53.400;7.608;2023-08-20T06:13:24;102133.41;;;17.78;100.00
73267;BME280;61495;53.400;7.608;2023-08-20T06:15:49;102130.72;;;17.96;100.00
73267;BME280;61495;53.400;7.608;2023-08-20T06:18:15;102128.94;;;18.08;100.00
73267;BME280;61495;53.400;7.608;2023-08-20T06:20:40;102128.94;;;18.26;100.00
73267;BME280;61495;53.400;7.608;2023-08-20T06:23:06;102126.22;;;18.45;100.00
73267;BME280;61495;53.400;7.608;2023-08-20T06:25:32;102129.41;;;18.60;100.00
73267;BME280;61495;53.400;7.608;2023-08-20T06:27:57;102130.88;;;18.74;100.00
73267;BME280;61495;53.400;7.608;2023-08-20T06:30:22;102130.47;;;18.88;100.00
73267;BME280;61495;53.400;7.608;2023-08-20T06:32:48;102125.22;;;19.05;99.57
73267;BME280;61495;53.400;7.608;2023-08-20T06:35:14;102135.22;;;19.23;98.33
73267;BME280;61495;53.400;7.608;2023-08-20T06:37:39;102128.13;;;19.33;98.11
73267;BME280;61495;53.400;7.608;2023-08-20T06:40:06;102137.44;;;19.56;98.57
73267;BME280;61495;53.400;7.608;2023-08-20T06:42:32;102125.84;;;19.72;97.37
73267;BME280;61495;53.400;7.608;2023-08-20T06:44:57;102139.81;;;19.87;97.18
73267;BME280;61495;53.400;7.608;2023-08-20T06:47:23;102134.88;;;20.07;96.74
73267;BME280;61495;53.400;7.608;2023-08-20T06:49:49;102130.09;;;20.14;96.31
73267;BME280;61495;53.400;7.608;2023-08-20T06:52:15;102133.91;;;20.36;95.76
73267;BME280;61495;53.400;7.608;2023-08-20T06:54:40;102140.25;;;20.54;93.70
73267;BME280;61495;53.400;7.608;2023-08-20T06:57:06;102136.19;;;20.68;93.27
73267;BME280;61495;53.400;7.608;2023-08-20T06:59:31;102131.03;;;20.83;92.29
73267;BME280;61495;53.400;7.608;2023-08-20T07:01:57;102125.59;;;20.99;91.74
73267;BME280;61495;53.400;7.608;2023-08-20T07:04:22;102137.16;;;21.18;90.34
73267;BME280;61495;53.400;7.608;2023-08-20T07:06:48;102118.50;;;21.27;89.02
73267;BME280;61495;53.400;7.608;2023-08-20T07:09:13;102133.00;;;21.60;89.04
73267;BME280;61495;53.400;7.608;2023-08-20T07:11:38;102130.94;;;21.68;88.78
73267;BME280;61495;53.400;7.608;2023-08-20T07:14:04;102137.38;;;21.78;86.50
73267;BME280;61495;53.400;7.608;2023-08-20T07:16:31;102140.09;;;21.95;86.81
73267;BME280;61495;53.400;7.608;2023-08-20T07:18:57;102143.66;;;22.12;85.47
73267;BME280;61495;53.400;7.608;2023-08-20T07:21:22;102136.09;;;22.19;84.35
73267;BME280;61495;53.400;7.608;2023-08-20T07:23:47;102144.75;;;22.33;82.28
73267;BME280;61495;53.400;7.608;2023-08-20T07:26:13;102142.72;;;22.45;83.87
73267;BME280;61495;53.400;7.608;2023-08-20T07:28:38;102138.38;;;22.65;85.05
73267;BME280;61495;53.400;7.608;2023-08-20T07:31:30;102150.91;;;22.88;82.88
73267;BME280;61495;53.400;7.608;2023-08-20T07:33:57;102154.59;;;22.99;82.86
73267;BME280;61495;53.400;7.608;2023-08-20T07:36:24;102146.75;;;23.07;82.00
73267;BME280;61495;53.400;7.608;2023-08-20T07:38:51;102147.75;;;23.28;79.89
73267;BME280;61495;53.400;7.608;2023-08-20T07:41:18;102150.03;;;23.36;80.28
73267;BME280;61495;53.400;7.608;2023-08-20T07:43:45;102155.19;;;23.59;81.02
73267;BME280;61495;53.400;7.608;2023-08-20T07:46:16;102150.59;;;23.65;78.19
73267;BME280;61495;53.400;7.608;2023-08-20T07:48:42;102151.53;;;23.81;79.23
73267;BME280;61495;53.400;7.608;2023-08-20T07:51:07;102151.59;;;23.91;78.95
73267;BME280;61495;53.400;7.608;2023-08-20T07:53:33;102150.13;;;24.15;nan
73267;BME280;61495;53.400;7.608;2023-08-20T07:56:00;102159.53;;;24.29;76.89
73267;BME280;61495;53.400;7.608;2023-08-20T07:58:27;102153.84;;;24.41;76.97
73267;BME280;61495;53.400;7.608;2023-08-20T08:00:54;102157.97;;;24.43;74.82
73267;BME280;61495;53.400;7.608;2023-08-20T08:03:19;102145.19;;;24.69;75.92
73267;BME280;61495;53.400;7.608;2023-08-20T08:05:48;102149.31;;;24.71;74.37
73267;BME280;61495;53.400;7.608;2023-08-20T08:08:17;102158.69;;;24.85;72.71
73267;BME280;61495;53.400;7.608;2023-08-20T08:10:46;102159.84;;;25.00;72.20
73267;BME280;61495;53.400;7.608;2023-08-20T08:13:14;102160.97;;;25.14;73.24
73267;BME280;61495;53.400;7.608;2023-08-20T08:15:43;102168.69;;;25.32;73.49
73267;BME280;61495;53.400;7.608;2023-08-20T08:18:08;102161.56;;;25.46;72.04
73267;BME280;61495;53.400;7.608;2023-08-20T08:20:35;102166.53;;;25.64;72.80
73267;BME280;61495;53.400;7.608;2023-08-20T08:23:01;102157.44;;;25.84;72.91
73267;BME280;61495;53.400;7.608;2023-08-20T08:25:26;102164.03;;;26.03;72.91
73267;BME280;61495;53.400;7.608;2023-08-20T08:27:53;102161.56;;;26.07;71.84
73267;BME280;61495;53.400;7.608;2023-08-20T08:30:19;102163.72;;;26.20;72.93
73267;BME280;61495;53.400;7.608;2023-08-20T08:32:44;102166.75;;;26.23;70.64
73267;BME280;61495;53.400;7.608;2023-08-20T08:35:10;102163.44;;;26.26;70.35
73267;BME280;61495;53.400;7.608;2023-08-20T08:37:36;102158.78;;;26.27;68.89
73267;BME280;61495;53.400;7.608;2023-08-20T08:40:03;102168.13;;;26.31;67.84
73267;BME280;61495;53.400;7.608;2023-08-20T08:42:32;102159.78;;;26.51;69.89
73267;BME280;61495;53.400;7.608;2023-08-20T08:45:02;102156.72;;;26.63;70.39
73267;BME280;61495;53.400;7.608;2023-08-20T08:47:29;102163.25;;;26.77;67.77
73267;BME280;61495;53.400;7.608;2023-08-20T08:49:55;102166.84;;;26.72;66.69
73267;BME280;61495;53.400;7.608;2023-08-20T08:52:25;102157.75;;;26.77;66.52
73267;BME280;61495;53.400;7.608;2023-08-20T08:54:51;102161.00;;;26.89;67.36
73267;BME280;61495;53.400;7.608;2023-08-20T08:57:17;102165.00;;;27.12;67.75
73267;BME280;61495;53.400;7.608;2023-08-20T08:59:42;102161.09;;;27.23;67.47
73267;BME280;61495;53.400;7.608;2023-08-20T09:02:10;102168.16;;;27.34;66.10
73267;BME280;61495;53.400;7.608;2023-08-20T09:04:40;102178.97;;;27.25;63.86
73267;BME280;61495;53.400;7.608;2023-08-20T09:07:12;102176.19;;;27.25;64.24
73267;BME280;61495;53.400;7.608;2023-08-20T09:09:41;102169.94;;;27.15;63.18
73267;BME280;61495;53.400;7.608;2023-08-20T09:12:18;102176.19;;;27.25;64.21
73267;BME280;61495;53.400;7.608;2023-08-20T09:14:51;102173.09;;;27.37;64.93
73267;BME280;61495;53.400;7.608;2023-08-20T09:17:17;102180.44;;;27.51;64.06
73267;BME280;61495;53.400;7.608;2023-08-20T09:19:45;102178.09;;;27.69;64.66
73267;BME280;61495;53.400;7.608;2023-08-20T09:22:12;102185.19;;;27.75;65.19
73267;BME280;61495;53.400;7.608;2023-08-20T09:24:44;102178.97;;;27.93;66.52
73267;BME280;61495;53.400;7.608;2023-08-20T09:27:14;102182.69;;;28.12;65.95
73267;BME280;61495;53.400;7.608;2023-08-20T09:29:50;102179.78;;;28.22;64.32
73267;BME280;61495;53.400;7.608;2023-08-20T09:32:18;102189.31;;;28.35;65.67
73267;BME280;61495;53.400;7.608;2023-08-20T09:34:45;102186.41;;;28.45;65.48
73267;BME280;61495;53.400;7.608;2023-08-20T09:37:16;102186.63;;;28.53;65.53
73267;BME280;61495;53.400;7.608;2023-08-20T09:39:43;102191.75;;;28.60;64.78
73267;BME280;61495;53.400;7.608;2023-08-20T09:42:10;102193.31;;;28.71;65.05
73267;BME280;61495;53.400;7.608;2023-08-20T09:44:38;102183.28;;;28.80;63.99
73267;BME280;61495;53.400;7.608;2023-08-20T09:47:09;102185.66;;;28.87;64.23
73267;BME280;61495;53.400;7.608;2023-08-20T09:52:06;102183.41;;;29.07;64.11
73267;BME280;61495;53.400;7.608;2023-08-20T09:55:09;102189.91;;;29.16;63.44
73267;BME280;61495;53.400;7.608;2023-08-20T09:57:41;102183.19;;;29.22;63.39
73267;BME280;61495;53.400;7.608;2023-08-20T10:00:09;102189.81;;;29.27;62.59
73267;BME280;61495;53.400;7.608;2023-08-20T10:02:35;102194.97;;;29.33;62.44
73267;BME280;61495;53.400;7.608;2023-08-20T10:05:02;102197.63;;;29.38;62.10
73267;BME280;61495;53.400;7.608;2023-08-20T10:07:29;102203.38;;;29.42;61.23
73267;BME280;61495;53.400;7.608;2023-08-20T10:09:59;102190.09;;;29.44;61.91
73267;BME280;61495;53.400;7.608;2023-08-20T10:12:29;102194.41;;;29.50;61.70
73267;BME280;61495;53.400;7.608;2023-08-20T10:15:01;102195.22;;;29.50;61.99
73267;BME280;61495;53.400;7.608;2023-08-20T10:17:32;102191.50;;;29.60;61.98
73267;BME280;61495;53.400;7.608;2023-08-20T10:20:02;102188.13;;;29.63;61.10
73267;BME280;61495;53.400;7.608;2023-08-20T10:22:41;102188.53;;;29.70;61.32
73267;BME280;61495;53.400;7.608;2023-08-20T10:25:21;102185.72;;;29.75;61.47
73267;BME280;61495;53.400;7.608;2023-08-20T10:27:47;102183.00;;;29.70;61.04
73267;BME280;61495;53.400;7.608;2023-08-20T10:30:24;102192.25;;;29.79;60.68
73267;BME280;61495;53.400;7.608;2023-08-20T10:32:52;102189.19;;;29.81;60.60
73267;BME280;61495;53.400;7.608;2023-08-20T10:35:23;102187.09;;;29.91;61.03
73267;BME280;61495;53.400;7.608;2023-08-20T10:38:11;102191.72;;;29.96;60.67
73267;BME280;61495;53.400;7.608;2023-08-20T10:48:52;102191.44;;;30.11;59.03
73267;BME280;61495;53.400;7.608;2023-08-20T10:51:24;102190.41;;;30.20;60.04
73267;BME280;61495;53.400;7.608;2023-08-20T10:56:48;102179.66;;;30.33;59.65
73267;BME280;61495;53.400;7.608;2023-08-20T11:01:52;102182.28;;;30.43;58.32
73267;BME280;61495;53.400;7.608;2023-08-20T11:04:20;102192.13;;;30.49;58.51
73267;BME280;61495;53.400;7.608;2023-08-20T11:06:46;102178.16;;;30.54;58.25
73267;BME280;61495;53.400;7.608;2023-08-20T11:09:14;102186.47;;;30.54;58.91
73267;BME280;61495;53.400;7.608;2023-08-20T11:11:41;102187.50;;;30.58;59.05
73267;BME280;61495;53.400;7.608;2023-08-20T11:14:11;102186.88;;;30.61;59.07
73267;BME280;61495;53.400;7.608;2023-08-20T11:16:37;102187.09;;;30.64;58.08
73267;BME280;61495;53.400;7.608;2023-08-20T11:19:06;102195.69;;;30.63;58.62
73267;BME280;61495;53.400;7.608;2023-08-20T11:21:43;102186.25;;;30.64;57.72
73267;BME280;61495;53.400;7.608;2023-08-20T11:24:09;102191.69;;;30.69;57.20
73267;BME280;61495;53.400;7.608;2023-08-20T11:26:35;102175.56;;;30.71;58.01
73267;BME280;61495;53.400;7.608;2023-08-20T11:29:10;102187.69;;;30.75;58.00
73267;BME280;61495;53.400;7.608;2023-08-20T11:31:38;102186.22;;;30.77;58.13
73267;BME280;61495;53.400;7.608;2023-08-20T11:34:05;102189.50;;;30.79;58.21
73267;BME280;61495;53.400;7.608;2023-08-20T11:36:30;102185.63;;;30.80;58.05
73267;BME280;61495;53.400;7.608;2023-08-20T11:38:56;102178.63;;;30.83;58.77
73267;BME280;61495;53.400;7.608;2023-08-20T11:41:22;102183.56;;;30.86;58.08
73267;BME280;61495;53.400;7.608;2023-08-20T11:43:49;102178.53;;;30.88;58.57
73267;BME280;61495;53.400;7.608;2023-08-20T11:46:19;102182.03;;;30.94;59.03
73267;BME280;61495;53.400;7.608;2023-08-20T11:49:07;102187.78;;;30.97;58.23
73267;BME280;61495;53.400;7.608;2023-08-20T11:51:40;102178.84;;;31.00;57.14
73267;BME280;61495;53.400;7.608;2023-08-20T11:54:19;102177.22;;;30.99;57.41
73267;BME280;61495;53.400;7.608;2023-08-20T11:56:46;102184.28;;;31.05;57.53
73267;BME280;61495;53.400;7.608;2023-08-20T11:59:12;102181.69;;;31.09;57.41
73267;BME280;61495;53.400;7.608;2023-08-20T12:01:38;102178.19;;;31.03;57.27
73267;BME280;61495;53.400;7.608;2023-08-20T12:04:05;102188.16;;;31.04;57.26
73267;BME280;61495;53.400;7.608;2023-08-20T12:06:31;102178.72;;;31.05;57.34
73267;BME280;61495;53.400;7.608;2023-08-20T12:08:58;102186.84;;;31.02;57.26
73267;BME280;61495;53.400;7.608;2023-08-20T12:11:25;102187.03;;;31.05;57.62
73267;BME280;61495;53.400;7.608;2023-08-20T12:13:51;102187.66;;;31.02;57.21
73267;BME280;61495;53.400;7.608;2023-08-20T12:16:17;102181.63;;;31.00;57.98
73267;BME280;61495;53.400;7.608;2023-08-20T12:18:43;102181.31;;;31.02;57.62
73267;BME280;61495;53.400;7.608;2023-08-20T12:21:10;102182.75;;;30.99;57.12
73267;BME280;61495;53.400;7.608;2023-08-20T12:23:36;102182.63;;;31.04;56.94
73267;BME280;61495;53.400;7.608;2023-08-20T12:26:02;102187.03;;;31.05;56.57
73267;BME280;61495;53.400;7.608;2023-08-20T12:28:27;102180.81;;;31.00;57.09
73267;BME280;61495;53.400;7.608;2023-08-20T12:30:53;102178.03;;;31.00;56.93
73267;BME280;61495;53.400;7.608;2023-08-20T12:33:18;102178.03;;;31.00;57.20
73267;BME280;61495;53.400;7.608;2023-08-20T12:35:46;102176.09;;;31.00;57.98
73267;BME280;61495;53.400;7.608;2023-08-20T12:38:11;102182.13;;;31.02;57.14
73267;BME280;61495;53.400;7.608;2023-08-20T12:40:37;102190.94;;;31.04;56.46
73267;BME280;61495;53.400;7.608;2023-08-20T12:43:02;102187.88;;;31.06;56.87
73267;BME280;61495;53.400;7.608;2023-08-20T12:45:28;102187.03;;;31.05;57.54
73267;BME280;61495;53.400;7.608;2023-08-20T12:47:54;102179.84;;;31.04;56.24
73267;BME280;61495;53.400;7.608;2023-08-20T12:50:19;102176.59;;;31.02;57.21
73267;BME280;61495;53.400;7.608;2023-08-20T12:52:44;102173.19;;;31.05;57.01
73267;BME280;61495;53.400;7.608;2023-08-20T12:55:12;102178.72;;;31.05;57.10
73267;BME280;61495;53.400;7.608;2023-08-20T12:57:52;102173.00;;;31.02;56.58
73267;BME280;61495;53.400;7.608;2023-08-20T13:00:19;102170.72;;;31.04;57.38
73267;BME280;61495;53.400;7.608;2023-08-20T13:02:44;102173.69;;;31.07;56.66
73267;BME280;61495;53.400;7.608;2023-08-20T13:05:10;102164.25;;;31.08;56.62
73267;BME280;61495;53.400;7.608;2023-08-20T13:07:37;102168.97;;;31.08;56.21
73267;BME280;61495;53.400;7.608;2023-08-20T13:10:03;102170.91;;;31.07;56.57
73267;BME280;61495;53.400;7.608;2023-08-20T13:12:31;102160.97;;;31.06;56.84